createdAt,value
2023-08-15T00:01:30.316Z,87.76
2023-08-15T00:03:57.199Z,86.29
2023-08-15T00:06:24.198Z,85.66
2023-08-15T00:08:55.173Z,85.85
2023-08-15T00:11:23.146Z,85.39
2023-08-15T00:13:50.940Z,85.28
2023-08-15T00:16:18.055Z,85.20
2023-08-15T00:18:44.929Z,84.13
2023-08-15T00:21:12.809Z,83.75
2023-08-15T00:23:39.508Z,83.75
2023-08-15T00:26:06.249Z,83.57
2023-08-15T00:28:32.980Z,84.69
2023-08-15T00:31:00.144Z,86.37
2023-08-15T00:33:27.072Z,86.27
2023-08-15T00:35:54.843Z,86.50
2023-08-15T00:38:21.790Z,87.65
2023-08-15T00:40:48.559Z,87.88
2023-08-15T00:43:18.726Z,86.03
2023-08-15T00:45:46.236Z,86.08
2023-08-15T00:48:13.700Z,86.25
2023-08-15T00:50:44.137Z,87.68
2023-08-15T00:53:12.360Z,88.31
2023-08-15T00:55:39.864Z,88.56
2023-08-15T00:58:07.122Z,89.06
2023-08-15T01:00:34.196Z,90.14
2023-08-15T01:03:02.095Z,91.20
2023-08-15T01:05:30.615Z,91.02
2023-08-15T01:07:58.997Z,90.41
2023-08-15T01:10:26.549Z,89.84
2023-08-15T01:13:10.810Z,89.73
2023-08-15T01:15:46.357Z,89.26
2023-08-15T01:18:18.483Z,89.00
2023-08-15T01:20:47.759Z,88.84
2023-08-15T01:23:15.343Z,88.83
2023-08-15T01:25:43.738Z,89.52
2023-08-15T01:28:14.923Z,90.61
2023-08-15T01:31:21.747Z,90.87
2023-08-15T01:34:02.455Z,90.70
2023-08-15T01:36:37.081Z,89.92
2023-08-15T01:39:06.772Z,89.58
2023-08-15T01:41:38.865Z,89.84
2023-08-15T01:44:08.414Z,89.86
2023-08-15T01:46:35.413Z,90.75
2023-08-15T01:49:02.258Z,91.53
2023-08-15T01:51:29.365Z,92.97
2023-08-15T01:53:56.362Z,93.41
2023-08-15T01:56:25.564Z,92.33
2023-08-15T01:58:52.499Z,92.05
2023-08-15T02:01:19.478Z,92.96
2023-08-15T02:03:46.292Z,93.11
2023-08-15T02:06:13.035Z,92.63
2023-08-15T02:08:40.285Z,94.96
2023-08-15T02:11:07.274Z,90.74
2023-08-15T02:13:35.084Z,91.13
2023-08-15T02:16:02.597Z,93.18
2023-08-15T02:18:30.505Z,94.05
2023-08-15T02:20:57.414Z,94.75
2023-08-15T02:23:24.671Z,95.85
2023-08-15T02:25:51.742Z,96.39
2023-08-15T02:28:18.933Z,95.60
2023-08-15T02:30:46.035Z,94.60
2023-08-15T02:33:13.050Z,95.74
2023-08-15T02:35:41.749Z,95.42
2023-08-15T02:38:09.241Z,95.23
2023-08-15T02:40:38.944Z,94.83
2023-08-15T02:43:06.084Z,95.40
2023-08-15T02:45:33.247Z,96.99
2023-08-15T02:48:02.149Z,95.54
2023-08-15T02:50:30.115Z,95.00
2023-08-15T02:52:57.123Z,93.75
2023-08-15T02:55:23.905Z,92.36
2023-08-15T02:57:50.700Z,91.54
2023-08-15T03:00:17.594Z,91.24
2023-08-15T03:02:44.829Z,89.93
2023-08-15T03:05:11.855Z,88.62
2023-08-15T03:07:38.717Z,88.17
2023-08-15T03:10:05.961Z,88.60
2023-08-15T03:12:32.917Z,88.29
2023-08-15T03:15:01.018Z,88.63
2023-08-15T03:17:28.082Z,88.56
2023-08-15T03:19:55.910Z,88.46
2023-08-15T03:22:23.236Z,88.89
2023-08-15T03:24:50.202Z,88.05
2023-08-15T03:27:17.073Z,89.04
2023-08-15T03:29:44.334Z,89.30
2023-08-15T03:32:14.181Z,88.77
2023-08-15T03:34:41.040Z,89.24
2023-08-15T03:37:07.847Z,89.80
2023-08-15T03:39:35.025Z,89.75
2023-08-15T03:42:02.136Z,89.92
2023-08-15T03:44:28.891Z,89.86
2023-08-15T03:46:55.869Z,87.86
2023-08-15T03:49:22.797Z,88.16
2023-08-15T03:51:49.692Z,88.09
2023-08-15T03:54:18.031Z,87.77
2023-08-15T03:56:48.027Z,88.64
2023-08-15T03:59:14.863Z,87.65
2023-08-15T04:01:42.036Z,87.39
2023-08-15T04:04:09.621Z,90.10
2023-08-15T04:06:36.451Z,91.08
2023-08-15T04:09:03.654Z,95.35
2023-08-15T04:11:30.967Z,97.28
2023-08-15T04:13:59.276Z,96.81
2023-08-15T04:16:27.308Z,95.51
2023-08-15T04:18:54.095Z,94.11
2023-08-15T04:21:20.930Z,93.19
2023-08-15T04:23:47.793Z,92.58
2023-08-15T04:26:14.544Z,91.86
2023-08-15T04:28:41.541Z,91.23
2023-08-15T04:31:08.595Z,89.61
2023-08-15T04:33:35.305Z,89.25
2023-08-15T04:36:02.443Z,90.19
2023-08-15T04:38:29.399Z,90.17
2023-08-15T04:40:59.218Z,90.70
2023-08-15T04:43:28.014Z,90.38
2023-08-15T04:45:54.785Z,90.13
2023-08-15T04:48:21.908Z,89.39
2023-08-15T04:50:51.924Z,90.19
2023-08-15T04:53:18.884Z,89.15
2023-08-15T04:55:46.009Z,88.55
2023-08-15T04:58:12.807Z,87.16
2023-08-15T05:00:39.541Z,86.03
2023-08-15T05:03:06.473Z,85.96
2023-08-15T05:05:33.504Z,85.24
2023-08-15T05:08:00.760Z,85.34
2023-08-15T05:10:28.050Z,85.39
2023-08-15T05:12:57.594Z,84.46
2023-08-15T05:15:25.092Z,83.06
2023-08-15T05:17:52.180Z,82.05
2023-08-15T05:20:19.315Z,81.57
2023-08-15T05:22:46.080Z,80.58
2023-08-15T05:25:13.650Z,80.47
2023-08-15T05:27:47.070Z,78.25
2023-08-15T05:30:14.803Z,77.92
2023-08-15T05:32:41.660Z,76.25
2023-08-15T05:35:09.449Z,78.19
2023-08-15T05:37:36.328Z,77.24
2023-08-15T05:40:05.033Z,75.79
2023-08-15T05:42:32.484Z,75.36
2023-08-15T05:44:59.366Z,75.45
2023-08-15T05:47:26.231Z,75.90
2023-08-15T05:49:53.689Z,73.84
2023-08-15T05:52:20.526Z,72.77
2023-08-15T05:54:47.355Z,73.54
2023-08-15T05:57:14.205Z,74.35
2023-08-15T05:59:41.006Z,74.53
2023-08-15T06:02:08.025Z,74.85
2023-08-15T06:04:36.528Z,75.86
2023-08-15T06:07:03.801Z,76.07
2023-08-15T06:09:30.958Z,76.14
2023-08-15T06:11:57.666Z,75.83
2023-08-15T06:14:24.567Z,76.43
2023-08-15T06:16:51.490Z,76.01
2023-08-15T06:19:19.280Z,76.12
2023-08-15T06:21:45.958Z,76.85
2023-08-15T06:24:13.766Z,76.33
2023-08-15T06:26:43.458Z,75.44
2023-08-15T06:29:10.865Z,74.33
2023-08-15T06:31:37.617Z,74.23
2023-08-15T06:34:07.260Z,72.50
2023-08-15T06:36:35.273Z,72.65
2023-08-15T06:39:02.235Z,72.30
2023-08-15T06:41:29.019Z,72.49
2023-08-15T06:43:56.987Z,71.37
2023-08-15T06:46:23.961Z,70.26
2023-08-15T06:48:50.772Z,70.85
2023-08-15T06:51:17.892Z,70.78
2023-08-15T06:53:47.592Z,69.31
2023-08-15T06:56:14.628Z,69.95
2023-08-15T06:58:41.454Z,69.64
2023-08-15T07:01:09.921Z,69.03
2023-08-15T07:03:36.773Z,68.28
2023-08-15T07:06:05.284Z,67.29
2023-08-15T07:08:33.030Z,66.20
2023-08-15T07:11:00.690Z,66.74
2023-08-15T07:13:27.526Z,64.66
2023-08-15T07:15:58.306Z,65.85
2023-08-15T07:18:25.707Z,63.53
2023-08-15T07:20:52.854Z,63.62
2023-08-15T07:23:21.539Z,63.25
2023-08-15T07:25:48.699Z,63.20
2023-08-15T07:28:15.551Z,64.77
2023-08-15T07:30:46.336Z,63.08
2023-08-15T07:33:14.883Z,62.48
2023-08-15T07:35:42.776Z,62.22
2023-08-15T07:38:09.657Z,63.54
2023-08-15T07:40:36.487Z,64.48
2023-08-15T07:43:03.325Z,65.28
2023-08-15T07:45:30.894Z,66.47
2023-08-15T07:47:59.530Z,67.08
2023-08-15T07:50:29.789Z,67.03
2023-08-15T07:53:00.647Z,66.36
2023-08-15T07:55:30.457Z,65.68
2023-08-15T07:57:59.154Z,64.03
2023-08-15T08:00:26.214Z,62.11
2023-08-15T08:02:53.501Z,61.28
2023-08-15T08:05:23.388Z,62.03
2023-08-15T08:07:50.958Z,62.02
2023-08-15T08:10:18.084Z,60.16
2023-08-15T08:12:47.088Z,58.32
2023-08-15T08:15:14.839Z,58.39
2023-08-15T08:17:41.847Z,60.98
2023-08-15T08:20:13.149Z,61.72
2023-08-15T08:22:40.456Z,64.21
2023-08-15T08:25:18.014Z,64.33
2023-08-15T08:27:47.404Z,66.59
2023-08-15T08:30:15.305Z,65.07
2023-08-15T08:32:42.362Z,63.63
2023-08-15T08:35:09.578Z,63.75
2023-08-15T08:37:36.485Z,63.89
2023-08-15T08:40:06.835Z,61.25
2023-08-15T08:42:35.056Z,60.12
2023-08-15T08:45:03.572Z,59.68
2023-08-15T08:47:34.251Z,58.57
2023-08-15T08:50:01.820Z,59.48
2023-08-15T08:52:32.017Z,57.73
2023-08-15T08:54:58.841Z,58.35
2023-08-15T08:57:33.994Z,55.29
2023-08-15T09:00:02.264Z,56.31
2023-08-15T09:02:31.924Z,54.27
2023-08-15T09:04:59.505Z,54.52
2023-08-15T09:07:26.256Z,54.51
2023-08-15T09:09:52.981Z,53.70
2023-08-15T09:12:40.082Z,53.00
2023-08-15T09:15:09.818Z,53.46
2023-08-15T09:17:38.883Z,51.63
2023-08-15T09:20:23.925Z,52.71
2023-08-15T09:22:51.822Z,53.21
2023-08-15T09:25:19.092Z,53.23
2023-08-15T09:27:47.242Z,54.94
2023-08-15T09:30:16.223Z,54.66
2023-08-15T09:32:44.830Z,54.74
2023-08-15T09:35:13.687Z,53.94
2023-08-15T09:37:45.379Z,53.50
2023-08-15T09:40:18.233Z,54.15
2023-08-15T09:42:47.576Z,54.43
2023-08-15T09:45:16.328Z,55.25
2023-08-15T09:47:44.750Z,55.46
2023-08-15T09:50:13.725Z,55.27
2023-08-15T09:52:42.174Z,56.13
2023-08-15T09:55:11.161Z,55.88
2023-08-15T09:57:43.414Z,55.03
2023-08-15T10:00:18.800Z,55.24
2023-08-15T10:02:58.304Z,56.09
2023-08-15T10:05:29.533Z,55.39
2023-08-15T10:07:58.672Z,56.77
2023-08-15T10:10:28.074Z,57.53
2023-08-15T10:12:55.565Z,57.85
2023-08-15T10:15:23.598Z,58.50
2023-08-15T10:17:51.254Z,58.91
2023-08-15T10:20:22.066Z,58.86
2023-08-15T10:22:55.467Z,59.03
2023-08-15T10:25:25.291Z,59.61
2023-08-15T10:27:54.146Z,59.47
2023-08-15T10:30:31.621Z,58.05
2023-08-15T10:33:12.555Z,58.32
2023-08-15T10:35:47.827Z,58.05
2023-08-15T10:38:16.927Z,56.96
2023-08-15T10:40:45.835Z,56.44
2023-08-15T10:43:14.086Z,57.81
2023-08-15T10:45:43.655Z,59.84
2023-08-15T10:48:11.206Z,59.07
2023-08-15T10:50:44.842Z,60.00
2023-08-15T10:53:11.793Z,59.50
2023-08-15T10:55:39.777Z,58.66
2023-08-15T10:58:11.874Z,58.86
2023-08-15T11:00:40.808Z,57.97
2023-08-15T11:03:08.325Z,58.03
2023-08-15T11:05:35.630Z,57.90
2023-08-15T11:08:16.244Z,58.27
2023-08-15T11:10:49.344Z,55.79
2023-08-15T11:13:17.978Z,56.23
2023-08-15T11:15:46.196Z,58.59
2023-08-15T11:18:22.069Z,56.83
2023-08-15T11:20:49.901Z,59.90
2023-08-15T11:23:16.757Z,59.99
2023-08-15T11:25:43.647Z,60.23
2023-08-15T11:28:10.692Z,60.87
2023-08-15T11:30:37.719Z,60.55
2023-08-15T11:33:06.222Z,59.75
2023-08-15T11:35:33.041Z,59.24
2023-08-15T11:38:01.751Z,59.92
2023-08-15T11:40:28.821Z,60.42
2023-08-15T11:42:55.581Z,60.08
2023-08-15T11:45:24.323Z,59.09
2023-08-15T11:48:00.996Z,60.42
2023-08-15T11:50:44.280Z,60.03
2023-08-15T11:53:17.152Z,58.76
2023-08-15T11:55:46.329Z,57.93
2023-08-15T11:58:33.852Z,58.81
2023-08-15T12:01:08.852Z,57.69
2023-08-15T12:03:36.257Z,56.45
2023-08-15T12:06:07.572Z,55.13
2023-08-15T12:08:36.289Z,55.14
2023-08-15T12:11:09.157Z,54.16
2023-08-15T12:13:40.872Z,54.10
2023-08-15T12:16:09.899Z,53.21
2023-08-15T12:18:37.816Z,53.26
2023-08-15T12:21:05.929Z,53.14
2023-08-15T12:23:32.984Z,53.32
2023-08-15T12:25:59.688Z,53.05
2023-08-15T12:28:29.250Z,52.89
2023-08-15T12:30:56.609Z,53.69
2023-08-15T12:33:39.186Z,53.16
2023-08-15T12:36:08.064Z,52.91
2023-08-15T12:38:35.057Z,53.61
2023-08-15T12:41:01.915Z,52.71
2023-08-15T12:43:28.732Z,53.23
2023-08-15T12:45:56.028Z,53.82
2023-08-15T12:48:22.925Z,53.97
2023-08-15T12:50:51.161Z,54.07
2023-08-15T12:53:18.122Z,54.61
2023-08-15T12:55:46.427Z,55.15
2023-08-15T12:58:13.200Z,54.11
2023-08-15T13:00:42.725Z,55.31
2023-08-15T13:03:10.593Z,54.64
2023-08-15T13:05:37.586Z,55.43
2023-08-15T13:08:04.691Z,54.33
2023-08-15T13:10:31.605Z,55.24
2023-08-15T13:12:58.459Z,53.91
2023-08-15T13:15:25.630Z,53.96
2023-08-15T13:17:52.716Z,53.17
2023-08-15T13:20:19.517Z,54.18
2023-08-15T13:22:46.269Z,54.15
2023-08-15T13:25:13.039Z,53.73
2023-08-15T13:27:39.835Z,52.47
2023-08-15T13:30:07.466Z,53.09
2023-08-15T13:32:34.336Z,53.21
2023-08-15T13:35:01.521Z,53.02
2023-08-15T13:37:30.993Z,52.90
2023-08-15T13:39:58.759Z,53.43
2023-08-15T13:44:55.721Z,53.16
2023-08-15T13:47:22.771Z,53.69
2023-08-15T13:49:49.900Z,52.97
2023-08-15T13:52:16.627Z,53.13
2023-08-15T13:54:43.578Z,53.61
2023-08-15T13:57:10.428Z,53.02
2023-08-15T13:59:37.103Z,53.36
2023-08-15T14:02:04.261Z,53.58
2023-08-15T14:04:32.685Z,53.97
2023-08-15T14:07:00.034Z,54.98
2023-08-15T14:09:26.967Z,55.37
2023-08-15T14:11:54.083Z,57.01
2023-08-15T14:14:20.855Z,57.26
2023-08-15T14:16:50.601Z,58.64
2023-08-15T14:19:17.435Z,58.44
2023-08-15T14:21:45.053Z,60.08
2023-08-15T14:24:11.878Z,59.13
2023-08-15T14:26:38.668Z,58.72
2023-08-15T14:29:05.428Z,59.72
2023-08-15T14:31:32.546Z,58.89
2023-08-15T14:33:59.400Z,58.02
2023-08-15T14:36:26.463Z,56.75
2023-08-15T14:38:54.218Z,56.33
2023-08-15T14:41:21.427Z,57.41
2023-08-15T14:43:48.516Z,56.54
2023-08-15T14:46:16.403Z,56.54
2023-08-15T14:48:43.317Z,54.36
2023-08-15T14:51:10.774Z,53.09
2023-08-15T14:53:37.621Z,51.26
2023-08-15T14:56:04.680Z,52.60
2023-08-15T14:58:31.780Z,53.82
2023-08-15T15:00:58.849Z,56.34
2023-08-15T15:03:26.000Z,57.14
2023-08-15T15:05:52.946Z,57.93
2023-08-15T15:08:20.641Z,59.48
2023-08-15T15:10:54.929Z,58.93
2023-08-15T15:13:21.976Z,58.43
2023-08-15T15:15:54.124Z,58.68
2023-08-15T15:18:26.530Z,59.83
2023-08-15T15:20:53.877Z,60.25
2023-08-15T15:23:21.064Z,61.33
2023-08-15T15:25:51.897Z,60.44
2023-08-15T15:28:18.765Z,60.99
2023-08-15T15:30:45.928Z,62.03
2023-08-15T15:33:12.642Z,61.56
2023-08-15T15:35:39.762Z,61.29
2023-08-15T15:38:06.567Z,62.21
2023-08-15T15:40:33.420Z,61.96
2023-08-15T15:43:00.145Z,61.60
2023-08-15T15:45:26.889Z,61.60
2023-08-15T15:47:53.827Z,61.53
2023-08-15T15:50:21.201Z,61.13
2023-08-15T15:52:48.887Z,62.05
2023-08-15T15:55:20.784Z,62.33
2023-08-15T15:57:48.268Z,62.96
2023-08-15T16:00:17.131Z,63.18
2023-08-15T16:02:44.122Z,62.98
2023-08-15T16:05:11.727Z,62.59
2023-08-15T16:07:38.956Z,63.84
2023-08-15T16:10:06.977Z,63.27
2023-08-15T16:12:33.974Z,63.48
2023-08-15T16:15:01.624Z,63.27
2023-08-15T16:17:29.270Z,62.99
2023-08-15T16:19:56.740Z,63.36
2023-08-15T16:22:24.048Z,63.81
2023-08-15T16:24:51.502Z,63.81
2023-08-15T16:27:18.327Z,63.48
2023-08-15T16:29:45.029Z,63.81
2023-08-15T16:32:14.125Z,64.30
2023-08-15T16:34:43.475Z,64.10
2023-08-15T16:37:10.257Z,63.96
2023-08-15T16:39:37.080Z,63.85
2023-08-15T16:42:04.069Z,62.83
2023-08-15T16:44:30.852Z,63.18
2023-08-15T16:46:57.793Z,63.67
2023-08-15T16:49:25.255Z,63.81
2023-08-15T16:51:52.088Z,64.08
2023-08-15T16:54:18.939Z,64.04
2023-08-15T16:56:45.778Z,64.13
2023-08-15T16:59:13.024Z,63.91
2023-08-15T17:01:39.953Z,64.49
2023-08-15T17:04:06.910Z,63.85
2023-08-15T17:06:33.811Z,63.97
2023-08-15T17:09:00.585Z,65.16
2023-08-15T17:11:27.601Z,65.50
2023-08-15T17:13:54.511Z,65.41
2023-08-15T17:16:21.317Z,65.12
2023-08-15T17:18:48.118Z,64.23
2023-08-15T17:21:14.861Z,64.15
2023-08-15T17:23:41.853Z,64.35
2023-08-15T17:26:08.689Z,64.53
2023-08-15T17:28:35.731Z,64.70
2023-08-15T17:31:02.511Z,63.95
2023-08-15T17:33:29.321Z,63.49
2023-08-15T17:35:56.555Z,64.43
2023-08-15T17:38:23.434Z,65.42
2023-08-15T17:40:50.235Z,64.83
2023-08-15T17:43:16.978Z,65.65
2023-08-15T17:45:43.814Z,65.90
2023-08-15T17:48:10.969Z,65.33
2023-08-15T17:50:37.844Z,65.95
2023-08-15T17:53:04.774Z,65.69
2023-08-15T17:55:31.646Z,66.78
2023-08-15T17:57:58.463Z,67.48
2023-08-15T18:00:25.935Z,67.09
2023-08-15T18:02:52.822Z,67.51
2023-08-15T18:05:20.112Z,67.36
2023-08-15T18:07:47.368Z,67.26
2023-08-15T18:10:15.559Z,66.87
2023-08-15T18:12:42.413Z,66.83
2023-08-15T18:15:11.395Z,66.39
2023-08-15T18:17:38.362Z,66.70
2023-08-15T18:20:05.966Z,67.27
2023-08-15T18:22:32.863Z,66.99
2023-08-15T18:24:59.777Z,67.01
2023-08-15T18:27:26.622Z,67.12
2023-08-15T18:29:53.498Z,67.51
2023-08-15T18:32:20.568Z,66.49
2023-08-15T18:34:47.700Z,66.27
2023-08-15T18:37:14.771Z,66.93
2023-08-15T18:39:41.772Z,67.66
2023-08-15T18:42:08.687Z,67.69
2023-08-15T18:44:35.544Z,68.65
2023-08-15T18:47:03.517Z,68.45
2023-08-15T18:49:31.272Z,69.37
2023-08-15T18:52:12.681Z,69.69
2023-08-15T18:54:39.461Z,69.74
2023-08-15T18:57:06.328Z,70.10
2023-08-15T18:59:33.117Z,70.59
2023-08-15T19:01:59.877Z,70.43
2023-08-15T19:04:26.611Z,71.18
2023-08-15T19:06:53.405Z,71.59
2023-08-15T19:09:22.251Z,71.46
2023-08-15T19:11:49.274Z,70.84
2023-08-15T19:14:16.216Z,70.09
2023-08-15T19:16:43.046Z,70.51
2023-08-15T19:19:09.820Z,70.95
2023-08-15T19:21:36.725Z,70.95
2023-08-15T19:24:03.817Z,70.72
2023-08-15T19:26:30.564Z,70.59
2023-08-15T19:28:58.561Z,70.17
2023-08-15T19:31:25.609Z,70.59
2023-08-15T19:33:52.560Z,70.13
2023-08-15T19:36:19.642Z,70.45
2023-08-15T19:38:46.960Z,70.22
2023-08-15T19:41:14.629Z,70.71
2023-08-15T19:43:41.905Z,70.75
2023-08-15T19:46:09.170Z,70.33
2023-08-15T19:48:36.661Z,69.82
2023-08-15T19:51:05.000Z,69.64
2023-08-15T19:53:32.023Z,68.67
2023-08-15T19:55:58.925Z,69.38
2023-08-15T19:58:26.022Z,69.68
2023-08-15T20:00:54.459Z,69.86
2023-08-15T20:03:21.711Z,70.08
2023-08-15T20:05:49.706Z,70.82
2023-08-15T20:08:16.665Z,70.98
2023-08-15T20:10:43.605Z,70.90
2023-08-15T20:13:10.390Z,71.10
2023-08-15T20:15:40.460Z,70.97
2023-08-15T20:18:08.669Z,71.06
2023-08-15T20:20:35.612Z,71.19
2023-08-15T20:23:02.497Z,71.74
2023-08-15T20:25:29.850Z,71.89
2023-08-15T20:27:57.801Z,72.12
2023-08-15T20:30:24.967Z,72.62
2023-08-15T20:32:51.900Z,73.38
2023-08-15T20:35:18.740Z,74.01
2023-08-15T20:37:45.982Z,72.94
2023-08-15T20:40:13.039Z,72.84
2023-08-15T20:42:39.873Z,72.77
2023-08-15T20:45:07.245Z,72.79
2023-08-15T20:47:35.031Z,72.67
2023-08-15T20:50:02.040Z,72.58
2023-08-15T20:52:31.733Z,72.26
2023-08-15T20:54:58.796Z,71.87
2023-08-15T20:57:25.912Z,71.67
2023-08-15T20:59:52.947Z,71.50
2023-08-15T21:02:20.008Z,72.52
2023-08-15T21:04:46.982Z,72.08
2023-08-15T21:07:13.888Z,71.57
2023-08-15T21:09:40.951Z,71.28
2023-08-15T21:12:08.190Z,71.28
2023-08-15T21:14:34.972Z,72.39
2023-08-15T21:17:02.757Z,72.25
2023-08-15T21:19:29.636Z,71.52
2023-08-15T21:21:56.691Z,70.22
2023-08-15T21:24:23.582Z,72.08
2023-08-15T21:26:50.502Z,71.92
2023-08-15T21:29:17.596Z,72.00
2023-08-15T21:31:44.675Z,72.24
2023-08-15T21:34:12.062Z,72.07
2023-08-15T21:36:38.957Z,71.50
2023-08-15T21:39:05.999Z,71.95
2023-08-15T21:41:32.837Z,72.54
2023-08-15T21:44:00.183Z,73.64
2023-08-15T21:46:27.536Z,74.54
2023-08-15T21:48:55.063Z,73.89
2023-08-15T21:51:22.071Z,73.92
2023-08-15T21:53:48.955Z,74.99
2023-08-15T21:56:15.767Z,75.65
2023-08-15T21:58:42.596Z,75.47
2023-08-15T22:01:09.388Z,76.00
2023-08-15T22:03:37.460Z,75.99
2023-08-15T22:06:04.493Z,76.35
2023-08-15T22:08:31.323Z,76.89
2023-08-15T22:10:58.053Z,76.57
2023-08-15T22:13:24.856Z,77.76
2023-08-15T22:15:51.686Z,78.24
2023-08-15T22:18:21.043Z,76.93
2023-08-15T22:20:49.433Z,76.35
2023-08-15T22:23:16.386Z,75.78
2023-08-15T22:25:48.012Z,75.05
2023-08-15T22:28:16.289Z,76.10
2023-08-15T22:30:44.548Z,77.23
2023-08-15T22:33:11.426Z,77.25
2023-08-15T22:35:42.789Z,77.13
2023-08-15T22:38:10.200Z,76.48
2023-08-15T22:40:37.305Z,76.54
2023-08-15T22:43:05.384Z,77.60
2023-08-15T22:45:32.400Z,77.78
2023-08-15T22:47:59.527Z,75.65
2023-08-15T22:50:26.820Z,74.84
2023-08-15T22:52:57.282Z,76.03
2023-08-15T22:55:24.308Z,75.83
2023-08-15T22:57:51.389Z,76.56
2023-08-15T23:00:18.598Z,76.79
2023-08-15T23:02:45.461Z,76.98
2023-08-15T23:05:12.365Z,75.69
2023-08-15T23:07:39.679Z,74.88
2023-08-15T23:10:07.442Z,75.46
2023-08-15T23:12:34.140Z,75.61
2023-08-15T23:15:01.339Z,76.53
2023-08-15T23:17:28.781Z,76.23
2023-08-15T23:19:55.613Z,75.00
2023-08-15T23:22:22.442Z,74.60
2023-08-15T23:24:49.269Z,75.41
2023-08-15T23:27:16.486Z,75.24
2023-08-15T23:29:45.524Z,75.46
2023-08-15T23:32:12.378Z,75.96
2023-08-15T23:34:39.247Z,76.16
2023-08-15T23:37:06.577Z,76.77
2023-08-15T23:39:33.547Z,77.54
2023-08-15T23:42:00.318Z,78.32
2023-08-15T23:44:27.284Z,78.83
2023-08-15T23:46:54.186Z,79.19
2023-08-15T23:49:21.365Z,78.90
2023-08-15T23:51:48.916Z,78.24
2023-08-15T23:54:15.818Z,79.52
2023-08-15T23:56:42.550Z,80.03
2023-08-15T23:59:10.685Z,81.21
